createdAt,value
2023-02-08T00:01:28.341Z,39.23
2023-02-08T00:03:56.705Z,42.03
2023-02-08T00:06:25.102Z,42.07
2023-02-08T00:08:54.675Z,43.53
2023-02-08T00:11:23.049Z,43.53
2023-02-08T00:13:51.336Z,46.17
2023-02-08T00:16:20.189Z,42.87
2023-02-08T00:18:48.562Z,43.80
2023-02-08T00:21:19.418Z,42.27
2023-02-08T00:23:48.279Z,49.33
2023-02-08T00:26:18.244Z,41.30
2023-02-08T00:28:47.217Z,41.65
2023-02-08T00:31:18.661Z,43.03
2023-02-08T00:33:47.030Z,35.90
2023-02-08T00:36:15.416Z,41.30
2023-02-08T00:38:44.196Z,41.77
2023-02-08T00:41:12.512Z,39.40
2023-02-08T00:43:42.195Z,34.57
2023-02-08T00:46:11.178Z,40.63
2023-02-08T00:48:39.592Z,37.57
2023-02-08T00:51:11.858Z,39.37
2023-02-08T00:53:43.132Z,38.27
2023-02-08T00:56:13.789Z,36.70
2023-02-08T00:58:44.281Z,42.10
2023-02-08T01:03:43.071Z,46.03
2023-02-08T01:06:16.805Z,36.05
2023-02-08T01:08:46.568Z,37.10
2023-02-08T01:11:18.404Z,35.87
2023-02-08T01:13:48.309Z,38.07
2023-02-08T01:16:19.647Z,35.55
2023-02-08T01:18:50.890Z,40.60
2023-02-08T01:21:23.518Z,37.47
2023-02-08T01:23:52.472Z,35.27
2023-02-08T01:26:23.009Z,35.00
2023-02-08T01:31:24.542Z,38.58
2023-02-08T01:33:53.729Z,34.43
2023-02-08T01:36:23.155Z,35.20
2023-02-08T01:38:51.429Z,36.77
2023-02-08T01:41:23.095Z,39.70
2023-02-08T01:44:10.583Z,32.43
2023-02-08T01:46:40.890Z,37.80
2023-02-08T01:49:14.341Z,36.88
2023-02-08T01:51:46.617Z,35.60
2023-02-08T01:54:18.578Z,33.57
2023-02-08T01:56:49.013Z,38.03
2023-02-08T01:59:24.091Z,33.72
2023-02-08T02:01:55.757Z,34.67
2023-02-08T02:04:24.472Z,37.00
2023-02-08T02:06:58.266Z,35.63
2023-02-08T02:09:32.415Z,33.80
2023-02-08T02:12:02.370Z,33.57
2023-02-08T02:14:32.274Z,36.00
2023-02-08T02:17:01.766Z,32.28
2023-02-08T02:19:40.547Z,36.63
2023-02-08T02:22:34.938Z,39.80
2023-02-08T02:25:38.648Z,33.10
2023-02-08T02:28:48.252Z,36.13
2023-02-08T02:31:55.564Z,35.17
2023-02-08T02:34:33.756Z,38.03
2023-02-08T02:37:14.460Z,37.37
2023-02-08T02:39:52.169Z,37.53
2023-02-08T02:42:49.694Z,36.73
2023-02-08T02:45:34.913Z,36.93
2023-02-08T02:48:13.455Z,42.40
2023-02-08T02:50:46.779Z,38.50
2023-02-08T02:53:23.940Z,41.50
2023-02-08T02:55:59.521Z,37.80
2023-02-08T02:58:30.008Z,34.77
2023-02-08T03:03:34.192Z,36.77
2023-02-08T03:06:06.388Z,39.93
2023-02-08T03:09:20.079Z,36.43
2023-02-08T03:11:57.700Z,35.90
2023-02-08T03:14:36.036Z,35.27
2023-02-08T03:17:24.089Z,34.77
2023-02-08T03:20:06.309Z,38.83
2023-02-08T03:22:46.807Z,35.87
2023-02-08T03:27:57.815Z,41.70
2023-02-08T03:30:34.842Z,37.83
2023-02-08T03:33:08.204Z,35.40
2023-02-08T03:35:43.353Z,39.00
2023-02-08T03:38:17.258Z,39.07
2023-02-08T03:40:49.417Z,38.20
2023-02-08T03:43:24.696Z,39.10
2023-02-08T03:45:58.878Z,41.03
2023-02-08T03:48:29.733Z,42.97
2023-02-08T03:51:02.011Z,38.93
2023-02-08T03:53:38.193Z,40.67
2023-02-08T03:56:11.212Z,37.97
2023-02-08T03:58:46.485Z,39.27
2023-02-08T04:01:21.323Z,42.83
2023-02-08T04:03:53.462Z,39.50
2023-02-08T04:06:23.945Z,41.13
2023-02-08T04:11:21.381Z,38.40
2023-02-08T04:13:49.620Z,34.50
2023-02-08T04:16:17.883Z,35.83
2023-02-08T04:18:46.086Z,37.63
2023-02-08T04:21:14.460Z,38.67
2023-02-08T04:23:44.114Z,41.63
2023-02-08T04:26:12.421Z,39.17
2023-02-08T04:28:40.700Z,36.93
2023-02-08T04:31:09.078Z,34.00
2023-02-08T04:33:37.380Z,37.10
2023-02-08T04:36:06.612Z,33.17
2023-02-08T04:38:34.830Z,37.03
2023-02-08T04:41:04.599Z,36.33
2023-02-08T04:43:32.954Z,32.58
2023-02-08T04:46:01.230Z,34.47
2023-02-08T04:48:29.574Z,39.10
2023-02-08T04:50:58.624Z,35.37
2023-02-08T04:53:27.360Z,36.67
2023-02-08T04:55:55.667Z,35.77
2023-02-08T04:58:25.480Z,34.33
2023-02-08T05:00:53.804Z,37.65
2023-02-08T05:03:22.067Z,34.37
2023-02-08T05:05:58.745Z,35.50
2023-02-08T05:08:27.515Z,37.53
2023-02-08T05:10:56.087Z,37.23
2023-02-08T05:13:25.763Z,40.93
2023-02-08T05:15:54.068Z,38.08
2023-02-08T05:18:22.389Z,41.77
2023-02-08T05:20:56.699Z,38.83
2023-02-08T05:23:25.431Z,39.57
2023-02-08T05:25:53.811Z,37.63
2023-02-08T05:28:22.134Z,41.37
2023-02-08T05:30:52.072Z,37.23
2023-02-08T05:33:20.415Z,34.47
2023-02-08T05:35:48.745Z,41.20
2023-02-08T05:38:16.980Z,34.63
2023-02-08T05:40:45.255Z,37.97
2023-02-08T05:43:13.512Z,36.10
2023-02-08T05:45:41.761Z,35.10
2023-02-08T05:48:11.379Z,34.33
2023-02-08T05:50:39.916Z,37.85
2023-02-08T05:53:11.501Z,42.00
2023-02-08T05:55:39.952Z,43.10
2023-02-08T05:58:08.216Z,35.73
2023-02-08T06:00:36.541Z,36.90
2023-02-08T06:03:04.895Z,38.10
2023-02-08T06:05:34.612Z,34.47
2023-02-08T06:08:03.037Z,35.40
2023-02-08T06:10:31.296Z,35.10
2023-02-08T06:12:59.677Z,38.23
2023-02-08T06:15:28.008Z,37.00
2023-02-08T06:17:56.530Z,34.03
2023-02-08T06:20:25.186Z,32.80
2023-02-08T06:22:55.996Z,35.80
2023-02-08T06:25:24.299Z,35.93
2023-02-08T06:27:52.633Z,34.93
2023-02-08T06:30:21.255Z,34.80
2023-02-08T06:32:49.506Z,37.67
2023-02-08T06:35:18.060Z,36.10
2023-02-08T06:37:46.332Z,31.87
2023-02-08T06:40:16.129Z,34.30
2023-02-08T06:42:44.438Z,34.72
2023-02-08T06:45:13.712Z,34.67
2023-02-08T06:47:42.280Z,35.20
2023-02-08T06:50:11.431Z,36.37
2023-02-08T06:52:39.734Z,38.43
2023-02-08T06:55:08.748Z,35.27
2023-02-08T06:57:38.466Z,36.67
2023-02-08T07:00:08.204Z,41.13
2023-02-08T07:02:36.541Z,41.42
2023-02-08T07:05:04.953Z,39.03
2023-02-08T07:07:33.297Z,39.03
2023-02-08T07:10:01.579Z,38.47
2023-02-08T07:12:29.799Z,40.17
2023-02-08T07:14:59.495Z,33.67
2023-02-08T07:17:27.826Z,33.03
2023-02-08T07:19:56.063Z,34.97
2023-02-08T07:22:24.342Z,35.93
2023-02-08T07:24:52.697Z,33.77
2023-02-08T07:27:21.129Z,35.43
2023-02-08T07:29:49.431Z,37.00
2023-02-08T07:32:19.088Z,36.73
2023-02-08T07:34:47.444Z,37.22
2023-02-08T07:37:15.757Z,35.63
2023-02-08T07:39:44.118Z,34.67
2023-02-08T07:42:12.639Z,35.33
2023-02-08T07:44:53.811Z,32.07
2023-02-08T07:47:23.459Z,35.77
2023-02-08T07:49:51.892Z,31.95
2023-02-08T07:52:20.114Z,32.80
2023-02-08T07:54:48.416Z,31.38
2023-02-08T07:57:21.078Z,32.37
2023-02-08T07:59:49.512Z,29.63
2023-02-08T08:02:18.711Z,32.40
2023-02-08T08:04:48.462Z,31.23
2023-02-08T08:07:16.943Z,33.95
2023-02-08T08:09:45.249Z,33.23
2023-02-08T08:12:13.562Z,37.15
2023-02-08T08:14:41.838Z,33.47
2023-02-08T08:17:10.120Z,33.97
2023-02-08T08:19:38.566Z,36.73
2023-02-08T08:22:08.255Z,37.57
2023-02-08T08:24:36.792Z,34.88
2023-02-08T08:27:06.195Z,39.17
2023-02-08T08:29:35.714Z,39.58
2023-02-08T08:32:04.833Z,36.03
2023-02-08T08:34:33.751Z,34.42
2023-02-08T08:37:03.811Z,38.60
2023-02-08T08:39:33.541Z,39.50
2023-02-08T08:42:04.049Z,35.80
2023-02-08T08:47:02.131Z,37.27
2023-02-08T08:49:30.813Z,33.30
2023-02-08T08:51:59.316Z,34.80
2023-02-08T08:54:27.592Z,36.85
2023-02-08T08:56:57.245Z,34.43
2023-02-08T08:59:25.706Z,34.77
2023-02-08T09:01:54.366Z,34.03
2023-02-08T09:04:23.033Z,35.65
2023-02-08T09:06:51.932Z,38.05
2023-02-08T09:09:21.166Z,36.70
2023-02-08T09:11:50.581Z,34.53
2023-02-08T09:14:20.247Z,34.72
2023-02-08T09:16:49.184Z,35.53
2023-02-08T09:19:17.546Z,32.08
2023-02-08T09:21:45.999Z,36.40
2023-02-08T09:24:14.420Z,37.22
2023-02-08T09:26:42.786Z,32.40
2023-02-08T09:29:11.108Z,36.17
2023-02-08T09:31:41.863Z,40.00
2023-02-08T09:34:10.241Z,33.97
2023-02-08T09:36:41.223Z,35.80
2023-02-08T09:39:13.761Z,37.47
2023-02-08T09:42:16.919Z,29.40
2023-02-08T09:45:03.960Z,36.97
2023-02-08T09:47:36.458Z,36.05
2023-02-08T09:50:11.244Z,33.13
2023-02-08T09:52:44.051Z,34.20
2023-02-08T09:55:29.029Z,30.98
2023-02-08T09:57:59.934Z,34.45
2023-02-08T10:00:36.372Z,33.10
2023-02-08T10:03:09.799Z,32.72
2023-02-08T10:05:38.231Z,31.60
2023-02-08T10:08:10.908Z,35.53
2023-02-08T10:10:52.595Z,30.98
2023-02-08T10:13:41.749Z,32.03
2023-02-08T10:16:20.904Z,26.42
2023-02-08T10:19:01.244Z,31.52
2023-02-08T10:21:52.105Z,36.88
2023-02-08T10:25:06.197Z,29.98
2023-02-08T10:27:45.901Z,28.02
2023-02-08T10:30:30.288Z,26.85
2023-02-08T10:33:03.578Z,24.55
2023-02-08T10:35:37.981Z,27.05
2023-02-08T10:38:31.834Z,26.73
2023-02-08T10:41:08.436Z,24.95
2023-02-08T10:43:43.214Z,24.42
2023-02-08T10:46:20.284Z,23.83
2023-02-08T10:49:04.040Z,31.33
2023-02-08T10:51:33.842Z,23.58
2023-02-08T10:54:02.279Z,25.15
2023-02-08T10:56:44.917Z,23.10
2023-02-08T10:59:23.773Z,25.65
2023-02-08T11:01:52.321Z,25.27
2023-02-08T11:04:21.376Z,23.23
2023-02-08T11:06:54.736Z,24.05
2023-02-08T11:09:27.291Z,26.25
2023-02-08T11:11:56.249Z,25.75
2023-02-08T11:14:45.544Z,25.75
2023-02-08T11:19:58.050Z,24.55
2023-02-08T11:22:31.398Z,26.42
2023-02-08T11:25:03.668Z,25.23
2023-02-08T11:27:36.601Z,29.73
2023-02-08T11:30:25.019Z,24.23
2023-02-08T11:33:19.668Z,28.20
2023-02-08T11:36:14.538Z,22.85
2023-02-08T11:38:44.894Z,24.88
2023-02-08T11:41:19.144Z,24.80
2023-02-08T11:44:01.224Z,26.00
2023-02-08T11:46:34.809Z,24.20
2023-02-08T11:49:04.517Z,25.98
2023-02-08T11:51:35.702Z,21.67
2023-02-08T11:54:07.837Z,25.00
2023-02-08T11:56:36.965Z,23.63
2023-02-08T11:59:19.401Z,23.42
2023-02-08T12:01:47.879Z,23.92
2023-02-08T12:04:18.292Z,24.65
2023-02-08T12:07:20.841Z,27.02
2023-02-08T12:10:22.920Z,28.42
2023-02-08T12:13:21.965Z,24.52
2023-02-08T12:16:04.844Z,30.45
2023-02-08T12:18:56.042Z,24.15
2023-02-08T12:21:29.508Z,26.33
2023-02-08T12:24:00.639Z,24.25
2023-02-08T12:26:54.173Z,21.10
2023-02-08T12:29:47.664Z,25.40
2023-02-08T12:32:45.103Z,24.35
2023-02-08T12:35:57.292Z,21.67
2023-02-08T12:39:20.454Z,24.38
2023-02-08T12:42:08.588Z,22.35
2023-02-08T12:44:51.985Z,19.27
2023-02-08T12:47:39.998Z,18.67
2023-02-08T12:50:19.901Z,19.45
2023-02-08T12:52:52.829Z,17.48
2023-02-08T12:55:26.829Z,20.25
2023-02-08T12:58:01.181Z,23.13
2023-02-08T13:00:33.832Z,19.98
2023-02-08T13:03:09.499Z,18.95
2023-02-08T13:05:50.784Z,18.48
2023-02-08T13:11:18.890Z,20.52
2023-02-08T13:13:59.058Z,22.40
2023-02-08T13:16:34.666Z,20.58
2023-02-08T13:19:26.161Z,21.75
2023-02-08T13:21:56.217Z,20.08
2023-02-08T13:24:34.362Z,20.38
2023-02-08T13:27:03.436Z,22.25
2023-02-08T13:29:34.090Z,22.83
2023-02-08T13:32:08.213Z,24.08
2023-02-08T13:34:41.385Z,20.55
2023-02-08T13:37:25.650Z,21.23
2023-02-08T13:40:04.630Z,21.85
2023-02-08T13:42:39.656Z,24.25
2023-02-08T13:45:12.281Z,20.08
2023-02-08T13:47:47.105Z,20.83
2023-02-08T13:50:46.159Z,20.52
2023-02-08T13:53:17.335Z,17.55
2023-02-08T13:55:59.351Z,18.13
2023-02-08T13:58:55.115Z,19.75
2023-02-08T14:01:27.708Z,20.42
2023-02-08T14:04:31.911Z,19.45
2023-02-08T14:07:15.102Z,21.13
2023-02-08T14:10:09.425Z,18.08
2023-02-08T14:12:45.537Z,19.50
2023-02-08T14:15:33.425Z,20.73
2023-02-08T14:18:03.550Z,20.48
2023-02-08T14:20:38.762Z,19.65
2023-02-08T14:23:22.558Z,18.15
2023-02-08T14:25:53.315Z,20.27
2023-02-08T14:30:58.734Z,24.45
2023-02-08T14:33:31.217Z,21.63
2023-02-08T14:36:02.945Z,20.52
2023-02-08T14:38:59.396Z,22.23
2023-02-08T14:42:00.106Z,21.10
2023-02-08T14:45:06.441Z,21.40
2023-02-08T14:47:57.055Z,21.55
2023-02-08T14:50:38.184Z,18.85
2023-02-08T14:53:20.889Z,20.38
2023-02-08T14:55:55.366Z,25.60
2023-02-08T14:58:30.893Z,22.95
2023-02-08T15:01:03.876Z,25.55
2023-02-08T15:03:33.836Z,22.70
2023-02-08T15:06:53.570Z,19.65
2023-02-08T15:09:25.815Z,22.60
2023-02-08T15:12:01.989Z,18.00
2023-02-08T15:14:32.458Z,21.25
2023-02-08T15:17:01.538Z,18.38
2023-02-08T15:19:35.168Z,21.35
2023-02-08T15:22:21.156Z,21.33
2023-02-08T15:24:56.166Z,15.35
2023-02-08T15:27:27.364Z,19.20
2023-02-08T15:29:55.994Z,15.63
2023-02-08T15:32:27.368Z,16.45
2023-02-08T15:34:58.300Z,17.60
2023-02-08T15:37:27.692Z,19.15
2023-02-08T15:39:59.962Z,15.90
2023-02-08T15:42:30.778Z,16.77
2023-02-08T15:45:00.640Z,21.60
2023-02-08T15:47:35.072Z,19.27
2023-02-08T15:50:04.796Z,19.55
2023-02-08T15:52:37.155Z,19.53
2023-02-08T15:55:10.312Z,16.65
2023-02-08T15:57:44.926Z,17.40
2023-02-08T16:00:18.307Z,17.60
2023-02-08T16:02:54.070Z,18.83
2023-02-08T16:05:25.731Z,18.98
2023-02-08T16:07:56.149Z,17.25
2023-02-08T16:10:34.772Z,18.88
2023-02-08T16:13:07.444Z,17.70
2023-02-08T16:15:43.700Z,19.45
2023-02-08T16:18:36.858Z,18.40
2023-02-08T16:21:07.835Z,21.25
2023-02-08T16:23:40.432Z,18.90
2023-02-08T16:26:21.142Z,18.70
2023-02-08T16:31:30.156Z,18.83
2023-02-08T16:34:05.068Z,17.45
2023-02-08T16:36:41.024Z,18.73
2023-02-08T16:39:42.541Z,20.73
2023-02-08T16:42:35.869Z,20.30
2023-02-08T16:45:24.969Z,23.95
2023-02-08T16:47:55.921Z,19.55
2023-02-08T16:50:28.617Z,21.02
2023-02-08T16:53:01.877Z,21.77
2023-02-08T16:55:34.745Z,21.17
2023-02-08T16:58:04.459Z,19.42
2023-02-08T17:00:35.591Z,20.07
2023-02-08T17:03:03.917Z,19.98
2023-02-08T17:05:36.927Z,18.75
2023-02-08T17:08:07.877Z,24.45
2023-02-08T17:10:36.871Z,21.40
2023-02-08T17:13:19.894Z,24.42
2023-02-08T17:15:51.691Z,23.45
2023-02-08T17:18:21.062Z,23.83
2023-02-08T17:20:49.740Z,23.75
2023-02-08T17:23:18.030Z,20.88
2023-02-08T17:25:46.593Z,19.88
2023-02-08T17:28:19.732Z,24.98
2023-02-08T17:30:50.539Z,21.65
2023-02-08T17:33:19.098Z,20.90
2023-02-08T17:35:49.381Z,27.13
2023-02-08T17:38:19.543Z,22.13
2023-02-08T17:40:48.006Z,32.28
2023-02-08T17:43:17.921Z,19.20
2023-02-08T17:45:47.370Z,21.92
2023-02-08T17:48:16.268Z,20.50
2023-02-08T17:50:50.784Z,19.33
2023-02-08T17:53:19.740Z,19.17
2023-02-08T17:55:48.361Z,22.55
2023-02-08T17:58:18.748Z,24.52
2023-02-08T18:00:47.058Z,23.77
2023-02-08T18:03:17.266Z,24.38
2023-02-08T18:05:45.605Z,23.10
2023-02-08T18:08:13.897Z,21.40
2023-02-08T18:10:42.662Z,21.38
2023-02-08T18:13:11.449Z,22.05
2023-02-08T18:15:41.416Z,21.60
2023-02-08T18:18:09.924Z,23.83
2023-02-08T18:20:38.295Z,25.98
2023-02-08T18:23:06.623Z,41.03
2023-02-08T18:25:34.888Z,22.33
2023-02-08T18:28:03.164Z,27.02
2023-02-08T18:30:32.173Z,23.73
2023-02-08T18:33:01.854Z,31.08
2023-02-08T18:35:30.790Z,26.37
2023-02-08T18:37:59.088Z,23.45
2023-02-08T18:40:27.464Z,24.45
2023-02-08T18:42:55.798Z,25.85
2023-02-08T18:45:24.297Z,22.55
2023-02-08T18:47:52.701Z,22.65
2023-02-08T18:50:22.390Z,23.48
2023-02-08T18:52:50.675Z,22.23
2023-02-08T18:55:19.080Z,22.63
2023-02-08T18:57:48.351Z,23.65
2023-02-08T19:00:17.684Z,30.15
2023-02-08T19:02:46.686Z,22.77
2023-02-08T19:05:15.208Z,24.58
2023-02-08T19:07:44.906Z,27.98
2023-02-08T19:10:13.210Z,27.13
2023-02-08T19:12:41.660Z,26.15
2023-02-08T19:15:11.041Z,26.92
2023-02-08T19:17:39.440Z,26.95
2023-02-08T19:20:09.482Z,26.75
2023-02-08T19:22:37.777Z,22.80
2023-02-08T19:25:08.611Z,33.72
2023-02-08T19:27:37.063Z,26.38
2023-02-08T19:30:06.482Z,31.65
2023-02-08T19:32:34.947Z,25.33
2023-02-08T19:35:03.243Z,24.58
2023-02-08T19:37:31.562Z,21.40
2023-02-08T19:40:00.168Z,20.38
2023-02-08T19:42:29.913Z,20.52
2023-02-08T19:44:58.401Z,18.48
2023-02-08T19:47:43.481Z,20.38
2023-02-08T19:50:15.887Z,20.02
2023-02-08T19:52:44.187Z,18.00
2023-02-08T19:55:12.614Z,20.10
2023-02-08T19:57:42.279Z,17.65
2023-02-08T20:00:22.927Z,16.30
2023-02-08T20:02:51.932Z,19.60
2023-02-08T20:05:20.183Z,17.35
2023-02-08T20:07:48.481Z,22.15
2023-02-08T20:10:17.180Z,19.77
2023-02-08T20:12:46.976Z,19.63
2023-02-08T20:15:15.326Z,20.98
2023-02-08T20:17:44.588Z,16.48
2023-02-08T20:20:13.414Z,32.22
2023-02-08T20:22:41.883Z,17.67
2023-02-08T20:25:10.202Z,22.65
2023-02-08T20:27:38.510Z,16.00
2023-02-08T20:30:09.341Z,16.65
2023-02-08T20:32:37.716Z,18.75
2023-02-08T20:35:06.458Z,15.77
2023-02-08T20:37:35.094Z,15.23
2023-02-08T20:40:03.669Z,17.67
2023-02-08T20:42:31.981Z,18.45
2023-02-08T20:45:00.409Z,15.82
2023-02-08T20:47:33.871Z,16.30
2023-02-08T20:50:16.812Z,15.00
2023-02-08T20:52:46.966Z,18.65
2023-02-08T20:55:15.285Z,17.00
2023-02-08T20:57:43.642Z,20.58
2023-02-08T21:00:14.336Z,16.00
2023-02-08T21:02:44.168Z,16.65
2023-02-08T21:05:12.546Z,17.60
2023-02-08T21:07:41.290Z,18.13
2023-02-08T21:10:10.105Z,14.82
2023-02-08T21:12:38.462Z,16.58
2023-02-08T21:15:08.451Z,17.92
2023-02-08T21:17:40.532Z,20.02
2023-02-08T21:20:12.821Z,17.13
2023-02-08T21:22:44.127Z,16.50
2023-02-08T21:25:12.691Z,16.25
2023-02-08T21:27:41.015Z,18.20
2023-02-08T21:30:11.244Z,15.35
2023-02-08T21:32:41.724Z,15.18
2023-02-08T21:35:11.498Z,16.75
2023-02-08T21:37:39.804Z,16.50
2023-02-08T21:40:08.617Z,16.55
2023-02-08T21:42:36.910Z,20.80
2023-02-08T21:45:06.131Z,18.48
2023-02-08T21:47:34.396Z,18.35
2023-02-08T21:50:20.121Z,17.45
2023-02-08T21:53:07.157Z,18.40
2023-02-08T21:55:35.483Z,18.13
2023-02-08T21:58:03.738Z,16.23
2023-02-08T22:00:32.080Z,18.80
2023-02-08T22:03:00.408Z,19.48
2023-02-08T22:05:46.601Z,18.13
2023-02-08T22:08:16.312Z,16.67
2023-02-08T22:10:50.342Z,22.17
2023-02-08T22:13:26.138Z,16.45
2023-02-08T22:15:54.418Z,16.35
2023-02-08T22:18:23.000Z,20.95
2023-02-08T22:20:52.624Z,19.25
2023-02-08T22:23:22.596Z,16.10
2023-02-08T22:25:50.952Z,19.77
2023-02-08T22:28:19.427Z,18.55
2023-02-08T22:30:49.376Z,18.83
2023-02-08T22:33:17.970Z,20.50
2023-02-08T22:35:46.301Z,21.23
2023-02-08T22:38:14.671Z,20.27
2023-02-08T22:40:44.675Z,21.20
2023-02-08T22:43:13.304Z,21.73
2023-02-08T22:45:42.319Z,21.67
2023-02-08T22:48:10.780Z,20.95
2023-02-08T22:50:39.469Z,24.63
2023-02-08T22:53:07.806Z,22.17
2023-02-08T22:55:36.180Z,18.48
2023-02-08T22:58:05.965Z,20.00
2023-02-08T23:00:34.306Z,24.90
2023-02-08T23:03:02.705Z,25.83
2023-02-08T23:05:31.042Z,20.88
2023-02-08T23:07:59.404Z,23.08
2023-02-08T23:10:27.780Z,27.13
2023-02-08T23:12:56.176Z,24.88
2023-02-08T23:15:25.837Z,20.25
2023-02-08T23:17:54.757Z,23.27
2023-02-08T23:20:23.098Z,25.58
2023-02-08T23:22:51.509Z,19.05
2023-02-08T23:25:20.407Z,22.73
2023-02-08T23:27:48.891Z,20.85
2023-02-08T23:30:17.412Z,20.65
2023-02-08T23:32:47.438Z,26.60
2023-02-08T23:35:16.863Z,22.98
2023-02-08T23:37:45.227Z,22.52
2023-02-08T23:40:13.884Z,20.52
2023-02-08T23:42:42.126Z,21.42
2023-02-08T23:45:11.264Z,25.30
2023-02-08T23:47:40.278Z,23.75
2023-02-08T23:50:11.445Z,21.33
2023-02-08T23:52:39.783Z,21.65
2023-02-08T23:55:08.888Z,22.35
2023-02-08T23:57:38.959Z,23.63
